Historique des mesures à Cassis (13260), France
Quotidien Résumé Fevrier 10, 2018 Unités:  Métrique/US    US   Métrique
« Précédent (Jour)
Suivant (Jour) »
Quotidien Hebdomadaire Mensuel Annuel Période au choix
  Maximum: Minimum: Moyenne:
Température: 32 °F /  TemperatureC °C 40.8 °F /  4.9 °C 44.1 °F /  6.7 °C
Point de rosée: 32 °F /  DewpointC °C 27.9 °F /  -2.3 °C 30.7 °F /  -0.7 °C
Humidité: Humidity % 45 % 56 %
Vitesse du vent: WindSpeedKMH mph /  0 km/h - 10.5 mph /  16.9 km/h
Rafales: WindSpeedGustKMH mph /  0 km/h - -
Vent:- - SW
Pression: 0 in /  PressurehPa hPa 29.7 in /  1007.3 hPa -
Précipitations: 0.0 in /  0 mm    
Historical Graphs
 
 
Mesures pour : Fevrier 10, 2018
Heure Temperature Point de rosée Pression Vent Vitesse du vent Rafales Humidité Pluie (par heure)
32 °F /  TemperatureC °C 32 °F /  DewpointC °C 0 in /  PressurehPa hPa Calm     Humidity % HourlyPrecipMM in /  0 mm
00:12 43 °F /  6.1 °C 31.3 °F /  -0.4 °C 29.8 in /  1009.4 hPa West 2.6 mph /  4.2 km/h 6.4 mph /  10.3 km/h 63 % 0.0 in /  0 mm
01:12 42.4 °F /  5.8 °C 31.1 °F /  -0.5 °C 29.8 in /  1008.7 hPa WNW 8.2 mph /  13.2 km/h 12.6 mph /  20.3 km/h 64 % 0.0 in /  0 mm
02:12 41.7 °F /  5.4 °C 31.3 °F /  -0.4 °C 29.8 in /  1008.0 hPa WNW 16.9 mph /  27.2 km/h 16.9 mph /  27.2 km/h 66 % 0.0 in /  0 mm
03:12 41.5 °F /  5.3 °C 31.5 °F /  -0.3 °C 29.8 in /  1007.7 hPa West 4.7 mph /  7.6 km/h 16.9 mph /  27.2 km/h 67 % 0.0 in /  0 mm
04:12 41.7 °F /  5.4 °C 32 °F /  0.0 °C 29.7 in /  1007.3 hPa NNW 20.6 mph /  33.2 km/h 20.6 mph /  33.2 km/h 68 % 0.0 in /  0 mm
05:12 41.5 °F /  5.3 °C 32.2 °F /  0.1 °C 29.7 in /  1007.3 hPa NNW 7.2 mph /  11.6 km/h 9.0 mph /  14.5 km/h 69 % 0.0 in /  0 mm
06:12 41.4 °F /  5.2 °C 32 °F /  0.0 °C 29.7 in /  1007.3 hPa Calm   2.9 mph /  4.7 km/h 69 % 0.0 in /  0 mm
07:12 40.8 °F /  4.9 °C 31.5 °F /  -0.3 °C 29.8 in /  1007.7 hPa NNE 4.3 mph /  6.9 km/h 4.3 mph /  6.9 km/h 69 % 0.0 in /  0 mm
08:12 41.2 °F /  5.1 °C 30.9 °F /  -0.6 °C 29.7 in /  1007.3 hPa NNW 5.0 mph /  8 km/h 13.4 mph /  21.6 km/h 67 % 0.0 in /  0 mm
09:12 43 °F /  6.1 °C 30.7 °F /  -0.7 °C 29.8 in /  1008.0 hPa North 7.9 mph /  12.7 km/h 7.9 mph /  12.7 km/h 62 % 0.0 in /  0 mm
10:12 44.4 °F /  6.9 °C 30 °F /  -1.1 °C 29.8 in /  1008.7 hPa North 4.0 mph /  6.4 km/h 9.7 mph /  15.6 km/h 57 % 0.0 in /  0 mm
11:12 47.1 °F /  8.4 °C 30.4 °F /  -0.9 °C 29.8 in /  1009.4 hPa West 14.8 mph /  23.8 km/h 14.8 mph /  23.8 km/h 52 % 0.0 in /  0 mm
12:12 49.8 °F /  9.9 °C 31.5 °F /  -0.3 °C 29.8 in /  1009.0 hPa WNW 16.6 mph /  26.7 km/h 16.6 mph /  26.7 km/h 49 % 0.0 in /  0 mm
13:12 51.6 °F /  10.9 °C 32.5 °F /  0.3 °C 29.8 in /  1009.0 hPa Calm   6.1 mph /  9.8 km/h 48 % 0.0 in /  0 mm
14:12 52.9 °F /  11.6 °C 32 °F /  0.0 °C 29.8 in /  1008.4 hPa WNW 19.1 mph /  30.7 km/h 19.1 mph /  30.7 km/h 45 % 0.0 in /  0 mm
15:12 52.2 °F /  11.2 °C 32.5 °F /  0.3 °C 29.8 in /  1008.7 hPa WNW 20.9 mph /  33.6 km/h 25.3 mph /  40.7 km/h 47 % 0.0 in /  0 mm
16:12 51.1 °F /  10.6 °C 31.5 °F /  -0.3 °C 29.8 in /  1008.7 hPa WNW 14.3 mph /  23 km/h 23.0 mph /  37 km/h 47 % 0.0 in /  0 mm
17:12 48.6 °F /  9.2 °C 30.7 °F /  -0.7 °C 29.8 in /  1008.7 hPa NNE 8.2 mph /  13.2 km/h 31.4 mph /  50.5 km/h 50 % 0.0 in /  0 mm
18:12 45.3 °F /  7.4 °C 29.7 °F /  -1.3 °C 29.8 in /  1009.4 hPa NNW 9.0 mph /  14.5 km/h 9.0 mph /  14.5 km/h 54 % 0.0 in /  0 mm
19:12 43 °F /  6.1 °C 28.8 °F /  -1.8 °C 29.8 in /  1009.7 hPa WNW 24.1 mph /  38.8 km/h 24.1 mph /  38.8 km/h 57 % 0.0 in /  0 mm
20:12 42.1 °F /  5.6 °C 27.9 °F /  -2.3 °C 29.8 in /  1009.4 hPa WNW 14.3 mph /  23 km/h 17.2 mph /  27.7 km/h 57 % 0.0 in /  0 mm
21:12 41.2 °F /  5.1 °C 28.4 °F /  -2.0 °C 29.8 in /  1009.7 hPa WNW 16.9 mph /  27.2 km/h 31.7 mph /  51 km/h 60 % 0.0 in /  0 mm
22:12 40.8 °F /  4.9 °C 28.4 °F /  -2.0 °C 29.8 in /  1010.4 hPa West 18.3 mph /  29.5 km/h 19.5 mph /  31.4 km/h 61 % 0.0 in /  0 mm
23:12 41.2 °F /  5.1 °C 28.8 °F /  -1.8 °C 29.8 in /  1010.0 hPa ENE 5.5 mph /  8.9 km/h 7.6 mph /  12.2 km/h 61 % 0.0 in /  0 mm
Observations météo à CASSIS
WU-History script by Weather Underground - 1 mb